Time;durP1;ratioP1;P1;durP2;ratioP2;P2;SDS_P1;SDS_P2;PMS_P1;PMS_P2;Temp;Humidity;BMP_temperature;BMP_pressure;BME280_temperature;BME280_humidity;BME280_pressure;Samples;Min_cycle;Max_cycle;Signal;HPM_P1;HPM_P2
2022/09/14 00:01:43;;;;;;;6.53;3.85;;;;;;;16.03;80.34;98053.88;5048500;28;20033;-82
2022/09/14 00:04:15;;;;;;;10.30;3.55;;;;;;;15.61;80.29;98062.31;5066439;28;20028;-81
2022/09/14 00:06:41;;;;;;;8.10;3.78;;;;;;;15.82;80.26;98066.16;5062998;28;20032;-82
2022/09/14 00:09:16;;;;;;;7.55;2.83;;;;;;;15.67;78.42;98050.34;5070521;28;20544;-82
2022/09/14 00:11:41;;;;;;;12.38;3.40;;;;;;;15.79;78.59;98047.16;5069749;28;20032;-82
2022/09/14 00:14:07;;;;;;;14.75;3.83;;;;;;;15.80;79.57;98073.75;5058593;28;20048;-82
2022/09/14 00:16:35;;;;;;;10.63;2.97;;;;;;;15.96;78.19;98077.72;5064102;28;20161;-82
2022/09/14 00:19:04;;;;;;;6.68;3.58;;;;;;;16.01;78.37;98077.59;5066533;28;20035;-82
2022/09/14 00:21:31;;;;;;;8.88;2.83;;;;;;;15.36;79.50;98060.06;5061050;28;20392;-81
2022/09/14 00:23:57;;;;;;;6.43;3.08;;;;;;;15.74;81.77;98056.94;5066185;28;20032;-82
2022/09/14 00:26:22;;;;;;;7.70;2.92;;;;;;;15.74;78.83;98046.16;5068383;28;20044;-82
2022/09/14 00:28:51;;;;;;;8.52;2.88;;;;;;;15.65;78.06;98050.66;5039859;28;20136;-82
2022/09/14 00:31:18;;;;;;;10.63;3.45;;;;;;;15.00;80.20;98041.13;5057152;28;20020;-82
2022/09/14 00:33:49;;;;;;;8.68;3.22;;;;;;;14.93;80.20;98049.59;5064990;28;20503;-82
2022/09/14 00:36:23;;;;;;;7.22;3.35;;;;;;;15.54;79.07;98037.72;5061237;28;20032;-81
2022/09/14 00:38:49;;;;;;;9.98;3.00;;;;;;;15.63;79.35;98033.22;5065105;28;20658;-82
2022/09/14 00:41:18;;;;;;;15.93;2.95;;;;;;;15.52;78.77;98031.84;5055436;28;20525;-82
2022/09/14 00:44:13;;;;;;;7.15;2.83;;;;;;;15.51;81.19;98022.97;5061095;28;20024;-81
2022/09/14 00:46:44;;;;;;;13.65;3.30;;;;;;;15.40;78.20;98023.41;5043521;28;20140;-81
2022/09/14 00:49:15;;;;;;;9.20;3.10;;;;;;;15.18;79.30;98034.09;5053804;28;20090;-82
2022/09/14 00:51:48;;;;;;;13.25;2.95;;;;;;;15.32;78.64;98013.38;5063869;28;20412;-81
2022/09/14 00:54:14;;;;;;;10.90;3.22;;;;;;;15.32;78.18;98013.38;5064521;28;20114;-82
2022/09/14 00:56:39;;;;;;;5.22;2.28;;;;;;;15.98;78.37;98024.38;5061501;28;20116;-82
2022/09/14 00:59:13;;;;;;;5.53;2.58;;;;;;;15.93;76.36;98010.22;5048165;28;20484;-82
2022/09/14 01:01:38;;;;;;;12.60;3.17;;;;;;;15.57;77.28;98024.44;5069101;28;20411;-82
2022/09/14 01:04:04;;;;;;;6.28;2.15;;;;;;;15.94;77.71;98018.03;5058426;28;20116;-81
2022/09/14 01:06:59;;;;;;;11.90;2.67;;;;;;;15.78;75.64;98024.81;5071616;28;20114;-82
2022/09/14 01:09:38;;;;;;;7.97;2.47;;;;;;;16.10;74.92;98024.63;5077422;28;20032;-81
2022/09/14 01:12:28;;;;;;;11.43;2.30;;;;;;;16.39;75.44;98022.34;5060787;28;20396;-81
2022/09/14 01:15:13;;;;;;;7.18;2.33;;;;;;;16.20;73.77;98031.69;5080254;28;20028;-82
2022/09/14 01:18:19;;;;;;;9.30;2.80;;;;;;;15.47;75.84;98023.84;5083073;28;20036;-81
2022/09/14 01:20:57;;;;;;;7.20;2.10;;;;;;;16.25;76.17;98016.22;5073499;28;20029;-82
2022/09/14 01:23:46;;;;;;;13.23;3.17;;;;;;;16.05;74.64;98016.69;5066728;28;20492;-82
2022/09/14 01:26:33;;;;;;;8.52;2.00;;;;;;;16.25;75.64;98008.13;5076031;28;20020;-81
2022/09/14 01:29:17;;;;;;;;;;;;;;;16.53;74.39;98005.34;5063314;28;20679;-82
2022/09/14 01:31:42;;;;;;;5.30;1.95;;;;;;;16.09;73.28;98012.28;5078929;28;20391;-82
2022/09/14 01:34:19;;;;;;;12.32;2.40;;;;;;;15.25;75.74;98004.91;5061731;28;20025;-81
2022/09/14 01:36:51;;;;;;;12.15;3.03;;;;;;;15.42;76.92;97999.75;5064229;28;20488;-82
2022/09/14 01:39:20;;;;;;;8.02;1.90;;;;;;;15.29;76.58;97989.78;5072709;28;20633;-82
2022/09/14 01:41:48;;;;;;;8.20;2.80;;;;;;;15.25;75.49;97983.41;5082993;28;20061;-82
2022/09/14 01:44:37;;;;;;;7.72;2.40;;;;;;;15.07;75.93;98003.13;5065168;28;20024;-81
2022/09/14 01:47:14;;;;;;;11.95;2.50;;;;;;;15.44;75.07;97974.16;5062702;28;20063;-81
2022/09/14 01:49:47;;;;;;;8.07;2.40;;;;;;;15.52;74.95;97994.19;5061318;28;20029;-82
2022/09/14 01:52:18;;;;;;;5.95;2.05;;;;;;;16.17;75.03;98000.78;5070275;28;20120;-82
2022/09/14 01:54:53;;;;;;;7.75;2.63;;;;;;;16.33;74.36;97998.53;5067829;28;20700;-82
2022/09/14 01:57:43;;;;;;;10.57;2.10;;;;;;;15.82;72.86;97982.75;5068983;28;20024;-82
2022/09/14 02:00:16;;;;;;;9.75;2.30;;;;;;;15.93;74.58;97980.63;5065542;28;20112;-82
2022/09/14 02:02:48;;;;;;;7.38;2.50;;;;;;;15.93;74.45;97997.56;5063690;28;20028;-82
2022/09/14 02:05:22;;;;;;;8.43;2.15;;;;;;;15.21;74.55;97993.97;5059527;28;20028;-82
2022/09/14 02:07:48;;;;;;;16.45;2.70;;;;;;;16.17;74.14;97979.25;5064545;28;20032;-81
2022/09/14 02:10:15;;;;;;;6.47;2.00;;;;;;;15.84;74.69;97983.25;5061656;28;20039;-81
2022/09/14 02:12:41;;;;;;;5.55;2.35;;;;;;;15.97;74.50;97987.78;5064772;28;20028;-82
2022/09/14 02:15:09;;;;;;;10.30;2.55;;;;;;;15.49;73.96;97986.69;5067553;28;20039;-81
2022/09/14 02:17:35;;;;;;;4.47;2.22;;;;;;;15.81;73.25;97969.63;5057062;28;21399;-82
2022/09/14 02:20:06;;;;;;;6.65;2.00;;;;;;;16.59;72.76;97966.41;5062352;28;20032;-83
2022/09/14 02:22:32;;;;;;;5.18;2.22;;;;;;;16.02;73.32;97960.75;5065828;28;20027;-82
2022/09/14 02:24:58;;;;;;;10.10;2.42;;;;;;;15.32;74.77;97963.09;5046596;28;20033;-82
2022/09/14 02:27:24;;;;;;;11.60;2.35;;;;;;;15.51;75.20;97968.38;5045864;28;20039;-83
2022/09/14 02:29:50;;;;;;;4.78;2.58;;;;;;;15.35;74.89;97957.13;5060818;28;20036;-82
2022/09/14 02:32:28;;;;;;;18.98;3.30;;;;;;;15.36;73.97;97969.47;5064608;28;20456;-82
2022/09/14 02:35:02;;;;;;;9.07;2.50;;;;;;;15.20;74.86;97962.00;5066750;28;20039;-82
2022/09/14 02:37:53;;;;;;;8.30;2.42;;;;;;;15.16;75.87;97945.66;5083160;28;20025;-82
2022/09/14 02:40:27;;;;;;;9.82;2.22;;;;;;;15.63;75.23;97958.69;5065933;28;20025;-82
2022/09/14 02:42:59;;;;;;;8.63;2.75;;;;;;;15.80;74.54;97963.44;5066544;28;20032;-82
2022/09/14 02:45:37;;;;;;;8.82;2.67;;;;;;;15.03;75.24;97951.84;5066794;28;20039;-82
2022/09/14 02:48:26;;;;;;;9.05;3.25;;;;;;;14.91;76.68;97933.56;5066096;28;20557;-82
2022/09/14 02:51:06;;;;;;;7.18;2.15;;;;;;;15.40;75.49;97934.69;5067135;28;20056;-82
2022/09/14 02:53:52;;;;;;;7.63;1.98;;;;;;;15.64;74.40;97952.19;5066405;28;20508;-82
2022/09/14 02:56:18;;;;;;;8.73;2.97;;;;;;;15.33;74.58;97932.41;5068522;28;20081;-81
2022/09/14 02:58:44;;;;;;;14.05;2.75;;;;;;;15.26;74.94;97947.38;5062131;28;20699;-82
2022/09/14 03:01:17;;;;;;;9.93;3.00;;;;;;;16.21;72.85;97918.28;5065498;28;20028;-82
2022/09/14 03:03:43;;;;;;;5.13;2.10;;;;;;;16.43;71.15;97923.66;5077651;28;20024;-82
2022/09/14 03:06:08;;;;;;;9.05;2.35;;;;;;;16.80;71.00;97938.63;5056185;28;20163;-82
2022/09/14 03:08:34;;;;;;;10.15;2.67;;;;;;;16.63;70.79;97913.47;5064910;28;20043;-82
2022/09/14 03:11:00;;;;;;;9.57;2.42;;;;;;;16.14;71.01;97920.63;5045726;28;20428;-82
2022/09/14 03:13:25;;;;;;;8.00;2.33;;;;;;;15.45;73.43;97905.84;5059662;28;20527;-82
2022/09/14 03:15:51;;;;;;;6.38;1.83;;;;;;;16.21;72.38;97888.69;5039181;28;20029;-82
2022/09/14 03:18:17;;;;;;;9.35;3.95;;;;;;;16.77;71.09;97923.09;5058287;28;20644;-83
2022/09/14 03:20:42;;;;;;;6.88;2.08;;;;;;;16.86;70.17;97906.94;5053156;28;20502;-82
2022/09/14 03:23:09;;;;;;;10.40;3.13;;;;;;;16.97;70.11;97913.66;5048494;28;20032;-82
2022/09/14 03:25:37;;;;;;;5.40;2.45;;;;;;;16.30;71.77;97916.47;5049813;28;20059;-82
2022/09/14 03:28:03;;;;;;;6.20;1.58;;;;;;;16.59;70.88;97899.84;5060959;28;20354;-82
2022/09/14 03:30:29;;;;;;;9.38;2.20;;;;;;;16.38;71.29;97923.78;5068429;28;20047;-82
2022/09/14 03:32:56;;;;;;;4.97;2.10;;;;;;;16.56;71.78;97916.63;5062174;28;20036;-82
2022/09/14 03:35:21;;;;;;;4.97;1.65;;;;;;;16.82;70.77;97931.00;5069008;28;20400;-82
2022/09/14 03:37:47;;;;;;;6.68;1.70;;;;;;;16.54;72.17;97924.22;5039354;28;20033;-82
2022/09/14 03:40:14;;;;;;;11.90;2.20;;;;;;;16.73;71.50;97924.00;5043542;28;20032;-82
2022/09/14 03:42:44;;;;;;;5.40;2.58;;;;;;;16.36;72.50;97923.28;5066980;28;20024;-82
2022/09/14 03:45:12;;;;;;;8.40;2.08;;;;;;;16.60;72.58;97922.97;5065459;28;20036;-82
2022/09/14 03:47:38;;;;;;;5.80;2.22;;;;;;;16.80;71.51;97905.47;5058583;28;20024;-82
2022/09/14 03:50:05;;;;;;;8.05;2.25;;;;;;;16.91;71.83;97909.47;5065806;28;20029;-83
2022/09/14 03:52:30;;;;;;;7.60;1.80;;;;;;;16.91;71.76;97915.66;5053277;28;20481;-83
2022/09/14 03:54:56;;;;;;;5.05;1.92;;;;;;;16.13;74.06;97902.09;5062090;28;20082;-82
2022/09/14 03:57:21;;;;;;;7.63;2.28;;;;;;;16.58;73.38;97914.41;5061401;28;20043;-83
2022/09/14 03:59:46;;;;;;;13.32;2.85;;;;;;;16.12;73.98;97903.97;5062264;28;20123;-80
2022/09/14 04:02:12;;;;;;;7.00;2.33;;;;;;;16.41;73.66;97880.09;5060731;28;20040;-81
2022/09/14 04:04:37;;;;;;;8.60;2.13;;;;;;;16.76;73.53;97899.13;5030537;28;20017;-81
2022/09/14 04:07:03;;;;;;;6.43;2.55;;;;;;;16.70;73.31;97878.81;5055562;28;20028;-81
2022/09/14 04:09:28;;;;;;;11.13;2.08;;;;;;;16.88;73.36;97902.03;5048112;28;20021;-81
2022/09/14 04:11:54;;;;;;;6.32;2.05;;;;;;;16.86;73.66;97904.25;5059617;28;20045;-81
2022/09/14 04:14:19;;;;;;;7.10;2.15;;;;;;;16.82;74.03;97901.34;5082141;28;20037;-81
2022/09/14 04:16:45;;;;;;;7.30;2.58;;;;;;;16.83;73.73;97899.47;5066197;28;20028;-81
2022/09/14 04:19:11;;;;;;;6.25;2.17;;;;;;;16.54;74.83;97891.91;5058609;28;20089;-81
2022/09/14 04:21:37;;;;;;;4.53;1.90;;;;;;;16.56;74.29;97870.03;5078804;28;20028;-82
2022/09/14 04:24:02;;;;;;;6.65;1.45;;;;;;;16.69;74.38;97871.81;5062562;28;20503;-81
2022/09/14 04:26:29;;;;;;;6.72;1.98;;;;;;;16.65;74.20;97873.56;5058622;28;20036;-82
2022/09/14 04:28:56;;;;;;;9.57;2.47;;;;;;;16.49;75.21;97883.91;5056365;28;20063;-83
2022/09/14 04:31:21;;;;;;;2.92;1.77;;;;;;;16.57;75.32;97891.28;5063840;28;20039;-83
2022/09/14 04:33:49;;;;;;;7.07;2.10;;;;;;;16.54;75.57;97891.09;5060424;28;20032;-83
2022/09/14 04:36:18;;;;;;;14.90;2.55;;;;;;;16.67;74.95;97882.13;5064483;28;20025;-81
2022/09/14 04:38:44;;;;;;;6.97;2.63;;;;;;;16.75;74.59;97886.75;5054382;28;20029;-81
2022/09/14 04:41:15;;;;;;;9.00;2.58;;;;;;;16.77;74.78;97884.56;5058660;28;20029;-80
2022/09/14 04:43:43;;;;;;;7.53;2.28;;;;;;;15.99;77.16;97886.00;5062320;28;20028;-80
2022/09/14 04:46:17;;;;;;;8.63;2.25;;;;;;;16.44;75.91;97876.78;5071169;28;20035;-81
2022/09/14 04:48:42;;;;;;;6.63;1.90;;;;;;;16.66;75.57;97880.53;5069383;28;20070;-81
2022/09/14 04:51:10;;;;;;;5.50;2.25;;;;;;;16.39;74.97;97860.75;5068825;28;20490;-82
2022/09/14 04:53:37;;;;;;;6.43;2.13;;;;;;;15.77;76.53;97878.72;5069435;28;20039;-82
2022/09/14 04:56:05;;;;;;;11.88;3.95;;;;;;;15.39;77.95;97858.63;5069340;28;20036;-82
2022/09/14 04:58:31;;;;;;;6.43;2.10;;;;;;;16.10;77.92;97873.88;5051935;28;20037;-81
2022/09/14 05:01:29;;;;;;;10.65;2.22;;;;;;;15.81;75.83;97861.97;5069923;28;20040;-81
2022/09/14 05:03:55;;;;;;;9.00;2.85;;;;;;;15.05;80.36;97855.59;5061974;28;20036;-81
2022/09/14 05:06:26;;;;;;;5.50;2.03;;;;;;;16.02;77.98;97873.81;5052464;28;20455;-81
2022/09/14 05:08:53;;;;;;;6.53;2.55;;;;;;;15.95;77.37;97870.75;5052913;28;20075;-81
2022/09/14 05:11:21;;;;;;;11.35;2.75;;;;;;;16.29;76.96;97881.75;5068817;28;20385;-81
2022/09/14 05:13:47;;;;;;;6.32;2.58;;;;;;;16.45;76.25;97878.34;5066415;28;20369;-81
2022/09/14 05:16:25;;;;;;;8.40;2.40;;;;;;;16.46;76.08;97871.06;5053652;28;20036;-81
2022/09/14 05:18:53;;;;;;;7.10;2.35;;;;;;;16.00;76.81;97881.41;5070596;28;20033;-81
2022/09/14 05:21:20;;;;;;;4.72;2.42;;;;;;;15.72;78.45;97886.13;5084747;28;20024;-81
2022/09/14 05:23:46;;;;;;;7.53;2.63;;;;;;;15.38;79.04;97880.41;5070319;28;20044;-81
2022/09/14 05:26:13;;;;;;;9.48;2.75;;;;;;;15.38;78.40;97883.91;5068760;28;20496;-80
2022/09/14 05:28:39;;;;;;;9.60;2.88;;;;;;;14.93;79.84;97877.63;5067749;28;20024;-81
2022/09/14 05:31:06;;;;;;;7.15;2.05;;;;;;;15.95;78.17;97876.94;5077742;28;20020;-81
2022/09/14 05:33:33;;;;;;;7.63;2.85;;;;;;;15.68;78.31;97877.84;5068586;28;20024;-80
2022/09/14 05:36:04;;;;;;;8.02;3.08;;;;;;;15.49;77.67;97868.34;5066527;28;20036;-81
2022/09/14 05:38:31;;;;;;;7.75;2.80;;;;;;;16.20;77.21;97884.41;5066702;28;20058;-81
2022/09/14 05:40:56;;;;;;;6.75;2.35;;;;;;;16.21;77.11;97871.72;5069158;28;20768;-80
2022/09/14 05:43:22;;;;;;;7.35;2.38;;;;;;;16.30;76.72;97876.06;5061805;28;20103;-81
2022/09/14 05:45:48;;;;;;;9.88;2.40;;;;;;;16.37;76.46;97868.34;5071228;28;20032;-81
2022/09/14 05:48:14;;;;;;;5.57;2.40;;;;;;;16.54;76.03;97889.19;5082781;28;20150;-81
2022/09/14 05:50:39;;;;;;;5.88;2.35;;;;;;;16.17;76.23;97863.47;5072760;28;20028;-81
2022/09/14 05:53:05;;;;;;;4.75;2.38;;;;;;;14.78;79.27;97866.38;5073562;28;20036;-81
2022/09/14 05:55:30;;;;;;;7.18;2.58;;;;;;;15.09;81.27;97882.69;5070866;28;20390;-81
2022/09/14 05:57:55;;;;;;;8.75;3.45;;;;;;;16.08;78.29;97888.75;5078696;28;20070;-81
2022/09/14 06:00:21;;;;;;;7.07;2.25;;;;;;;16.23;77.02;97873.00;5087694;28;20028;-81
2022/09/14 06:02:48;;;;;;;11.25;3.30;;;;;;;16.19;77.31;97857.78;5072109;28;20036;-81
2022/09/14 06:05:14;;;;;;;12.32;2.70;;;;;;;16.32;76.89;97862.28;5071857;28;20021;-81
2022/09/14 06:07:39;;;;;;;9.38;2.60;;;;;;;16.20;76.66;97860.19;5072060;28;20376;-81
2022/09/14 06:10:05;;;;;;;10.40;2.75;;;;;;;16.35;75.71;97872.44;5083260;28;20055;-82
2022/09/14 06:12:31;;;;;;;5.03;2.10;;;;;;;15.92;78.28;97853.34;5075840;28;20032;-81
2022/09/14 06:14:56;;;;;;;7.03;2.53;;;;;;;16.26;77.09;97872.41;5056459;28;20032;-81
2022/09/14 06:17:21;;;;;;;12.00;2.53;;;;;;;16.38;76.86;97882.59;5056208;28;20032;-82
2022/09/14 06:19:47;;;;;;;9.30;1.80;;;;;;;16.32;76.75;97873.84;5072855;28;20034;-82
2022/09/14 06:22:12;;;;;;;5.43;2.13;;;;;;;16.25;76.85;97873.50;5059989;28;20029;-81
2022/09/14 06:24:38;;;;;;;10.45;2.58;;;;;;;16.37;76.64;97889.09;5084374;28;20111;-82
2022/09/14 06:27:03;;;;;;;8.55;2.22;;;;;;;16.18;76.69;97867.78;5077608;28;20047;-81
2022/09/14 06:29:29;;;;;;;4.03;1.92;;;;;;;16.03;77.92;97873.50;5074524;28;20037;-82
2022/09/14 06:31:54;;;;;;;5.70;2.30;;;;;;;16.27;76.89;97875.91;5056383;28;20040;-82
2022/09/14 06:34:20;;;;;;;5.55;1.92;;;;;;;15.87;77.68;97849.97;5066568;28;20477;-82
2022/09/14 06:36:45;;;;;;;9.32;2.53;;;;;;;16.05;77.74;97854.38;5045532;28;20028;-82
2022/09/14 06:39:11;;;;;;;11.20;2.03;;;;;;;16.11;77.23;97848.56;5069007;28;20071;-82
2022/09/14 06:41:36;;;;;;;3.83;2.30;;;;;;;16.16;77.32;97866.50;5052532;28;20029;-83
2022/09/14 06:44:01;;;;;;;5.78;1.88;;;;;;;16.22;77.38;97866.03;5052635;28;20606;-82
2022/09/14 06:46:32;;;;;;;7.28;2.20;;;;;;;16.30;76.86;97877.94;5052384;28;20028;-82
2022/09/14 06:49:03;;;;;;;6.63;1.98;;;;;;;15.86;78.19;97865.31;5067792;28;20038;-82
2022/09/14 06:51:29;;;;;;;8.95;2.10;;;;;;;16.15;77.51;97865.69;5070653;28;20108;-82
2022/09/14 06:53:58;;;;;;;12.98;3.05;;;;;;;15.68;79.12;97871.69;5068499;28;20112;-82
2022/09/14 06:56:25;;;;;;;9.90;2.47;;;;;;;15.58;79.50;97866.53;5067160;28;20668;-82
2022/09/14 06:58:52;;;;;;;3.28;1.90;;;;;;;15.60;80.00;97858.97;5071380;28;20028;-82
2022/09/14 07:01:18;;;;;;;8.15;2.55;;;;;;;16.10;78.56;97873.88;5062702;28;20079;-82
2022/09/14 07:03:45;;;;;;;6.85;1.95;;;;;;;16.23;77.81;97875.69;5093772;28;20368;-82
2022/09/14 07:06:22;;;;;;;7.57;2.38;;;;;;;15.72;78.41;97876.16;5093798;28;20600;-82
2022/09/14 07:08:49;;;;;;;9.85;2.47;;;;;;;15.43;81.14;97873.06;5053652;28;20123;-81
2022/09/14 07:11:16;;;;;;;11.73;3.00;;;;;;;15.46;80.35;97850.16;5081371;28;20078;-82
2022/09/14 07:13:43;;;;;;;13.60;2.90;;;;;;;15.47;79.50;97879.44;5079812;28;20028;-82
2022/09/14 07:16:09;;;;;;;10.43;3.08;;;;;;;15.36;78.76;97871.84;5064697;28;20047;-82
2022/09/14 07:18:35;;;;;;;7.88;2.33;;;;;;;15.25;80.82;97900.06;5092412;28;20027;-81
2022/09/14 07:21:14;;;;;;;5.00;1.90;;;;;;;15.28;80.63;97877.94;5093621;28;20024;-82
2022/09/14 07:23:42;;;;;;;4.07;1.98;;;;;;;15.91;78.99;97886.75;5068581;28;20028;-82
2022/09/14 07:26:16;;;;;;;6.18;1.75;;;;;;;16.07;78.04;97871.81;5080342;28;20059;-82
2022/09/14 07:28:43;;;;;;;6.55;2.38;;;;;;;16.02;78.38;97857.69;5073301;28;20029;-81
2022/09/14 07:31:28;;;;;;;4.95;2.03;;;;;;;16.03;78.30;97854.66;5065928;28;20711;-82
2022/09/14 07:33:55;;;;;;;11.07;2.60;;;;;;;16.03;78.03;97864.66;5071701;28;20028;-82
2022/09/14 07:36:22;;;;;;;7.88;2.40;;;;;;;15.98;78.46;97868.28;5093508;28;20050;-82
2022/09/14 07:38:47;;;;;;;6.63;2.20;;;;;;;15.94;78.66;97866.50;5091511;28;20041;-81
2022/09/14 07:41:12;;;;;;;8.18;2.28;;;;;;;15.92;78.61;97841.78;5062774;28;20661;-82
2022/09/14 07:43:38;;;;;;;7.93;2.40;;;;;;;16.24;77.50;97881.88;5072549;28;20025;-82
2022/09/14 07:46:04;;;;;;;7.82;2.05;;;;;;;16.14;77.95;97864.09;5053593;28;20181;-82
2022/09/14 07:48:32;;;;;;;7.43;1.95;;;;;;;16.07;77.91;97850.28;5072319;28;20524;-82
2022/09/14 07:51:11;;;;;;;5.20;2.10;;;;;;;16.05;77.71;97849.81;5058692;28;20472;-82
2022/09/14 07:53:39;;;;;;;9.40;1.85;;;;;;;16.22;77.86;97878.72;5055084;28;20059;-82
2022/09/14 07:56:06;;;;;;;6.95;2.60;;;;;;;16.24;77.85;97873.81;5070934;28;20464;-81
2022/09/14 07:58:32;;;;;;;3.78;1.55;;;;;;;16.13;77.87;97865.19;5072196;28;20036;-82
2022/09/14 08:01:04;;;;;;;11.48;2.67;;;;;;;16.20;78.08;97870.16;5068023;28;20052;-81
2022/09/14 08:03:30;;;;;;;4.30;2.17;;;;;;;16.02;78.44;97857.69;5071505;28;20590;-82
2022/09/14 08:06:04;;;;;;;9.48;2.30;;;;;;;15.96;79.43;97857.03;5067593;28;20028;-82
2022/09/14 08:08:35;;;;;;;9.13;2.25;;;;;;;16.13;78.66;97859.00;5089465;28;20040;-82
2022/09/14 08:11:16;;;;;;;6.22;2.03;;;;;;;16.16;78.04;97850.34;5070083;28;20543;-82
2022/09/14 08:13:44;;;;;;;3.42;2.10;;;;;;;16.03;78.19;97822.38;5072287;28;20094;-82
2022/09/14 08:16:11;;;;;;;14.23;3.15;;;;;;;15.78;79.25;97839.16;5088045;28;20019;-82
2022/09/14 08:18:37;;;;;;;7.70;2.17;;;;;;;16.04;78.81;97845.50;5084159;28;20043;-81
2022/09/14 08:21:08;;;;;;;5.35;1.98;;;;;;;16.26;79.00;97856.25;5069740;28;20492;-81
2022/09/14 08:23:35;;;;;;;8.20;2.35;;;;;;;16.04;78.82;97856.28;5069707;28;20411;-82
2022/09/14 08:26:05;;;;;;;13.82;2.97;;;;;;;15.14;80.67;97832.28;5068340;28;20085;-82
2022/09/14 08:28:31;;;;;;;7.40;2.50;;;;;;;15.65;80.97;97842.72;5071633;28;20093;-81
2022/09/14 08:31:08;;;;;;;9.70;2.97;;;;;;;15.64;80.87;97858.06;5077681;28;20430;-81
2022/09/14 08:33:36;;;;;;;9.07;3.35;;;;;;;14.74;83.76;97860.00;5076424;28;20029;-81
2022/09/14 08:36:02;;;;;;;10.98;3.47;;;;;;;14.58;84.15;97845.28;5080225;28;20476;-81
2022/09/14 08:38:28;;;;;;;5.93;2.53;;;;;;;15.28;82.96;97862.63;5067451;28;20039;-82
2022/09/14 08:40:55;;;;;;;15.40;3.80;;;;;;;15.50;81.43;97848.44;5084218;28;20065;-81
2022/09/14 08:43:24;;;;;;;5.28;2.70;;;;;;;15.68;80.53;97831.34;5061082;28;20040;-82
2022/09/14 08:45:54;;;;;;;16.13;3.70;;;;;;;15.44;81.07;97847.75;5080174;28;20024;-81
2022/09/14 08:48:25;;;;;;;14.38;2.17;;;;;;;16.05;80.38;97846.31;5053660;28;20029;-81
2022/09/14 08:50:52;;;;;;;9.10;2.80;;;;;;;15.99;79.56;97831.41;5078872;28;20104;-82
2022/09/14 08:53:20;;;;;;;9.70;2.60;;;;;;;16.11;79.28;97843.19;5052596;28;20024;-81
2022/09/14 08:55:59;;;;;;;5.22;2.00;;;;;;;16.16;79.44;97840.34;5068523;28;20035;-81
2022/09/14 08:58:30;;;;;;;5.82;3.53;;;;;;;16.07;79.45;97839.50;5077332;28;20035;-82
2022/09/14 09:01:07;;;;;;;6.65;2.83;;;;;;;16.08;79.35;97830.31;5070250;28;20029;-82
2022/09/14 09:03:35;;;;;;;11.43;3.42;;;;;;;15.84;80.18;97839.81;5071259;28;20032;-81
2022/09/14 09:06:22;;;;;;;7.70;3.35;;;;;;;14.62;85.14;97843.59;5069334;28;20127;-81
2022/09/14 09:09:22;;;;;;;15.43;4.03;;;;;;;14.37;86.36;97831.47;5067685;28;20029;-82
2022/09/14 09:11:50;;;;;;;8.38;2.85;;;;;;;15.66;82.48;97828.94;5077006;28;20028;-81
2022/09/14 09:14:28;;;;;;;4.82;2.72;;;;;;;15.08;84.84;97833.50;5090040;28;20040;-82
2022/09/14 09:16:56;;;;;;;4.78;2.80;;;;;;;15.65;82.00;97811.22;5063717;28;20777;-81
2022/09/14 09:19:56;;;;;;;8.65;3.67;;;;;;;15.54;81.97;97833.28;5068592;28;20024;-82
2022/09/14 09:22:24;;;;;;;11.05;3.55;;;;;;;15.18;84.43;97835.94;5046288;28;20066;-82
2022/09/14 09:24:53;;;;;;;14.68;5.00;;;;;;;14.46;86.68;97821.59;5057321;28;20020;-81
2022/09/14 09:27:18;;;;;;;7.75;3.80;;;;;;;14.34;88.08;97842.78;5073891;28;20050;-81
2022/09/14 09:29:44;;;;;;;10.75;3.83;;;;;;;14.80;87.27;97840.81;5087013;28;20032;-81
2022/09/14 09:32:23;;;;;;;4.63;2.83;;;;;;;14.50;88.44;97809.19;5078870;28;20484;-81
2022/09/14 09:34:48;;;;;;;10.52;3.67;;;;;;;14.98;86.39;97823.75;5067191;28;20033;-81
2022/09/14 09:37:19;;;;;;;9.63;3.15;;;;;;;15.28;84.57;97821.50;5072527;28;20086;-81
2022/09/14 09:39:45;;;;;;;8.00;3.05;;;;;;;15.74;82.90;97814.78;5080042;28;20050;-82
2022/09/14 09:42:23;;;;;;;12.32;3.40;;;;;;;16.06;81.25;97792.16;5069222;28;20036;-82
2022/09/14 09:45:04;;;;;;;9.07;3.00;;;;;;;16.26;79.91;97788.94;5076030;28;20036;-82
2022/09/14 09:47:41;;;;;;;4.20;2.70;;;;;;;16.43;79.86;97797.06;5091331;28;20054;-82
2022/09/14 09:50:12;;;;;;;11.07;3.42;;;;;;;16.12;80.69;97815.13;5094262;28;20376;-82
2022/09/14 09:52:47;;;;;;;10.05;4.35;;;;;;;15.18;84.38;97819.03;5086284;28;20042;-81
2022/09/14 09:55:19;;;;;;;7.30;3.27;;;;;;;15.61;83.86;97820.22;5084120;28;20512;-81
2022/09/14 09:57:44;;;;;;;7.63;3.92;;;;;;;14.84;85.89;97823.00;5072762;28;20086;-81
2022/09/14 10:00:12;;;;;;;12.13;4.50;;;;;;;14.51;87.90;97826.88;5076418;28;20028;-81
2022/09/14 10:02:37;;;;;;;10.88;5.32;;;;;;;14.46;87.71;97824.28;5073892;28;20107;-81
2022/09/14 10:05:08;;;;;;;10.57;5.60;;;;;;;13.89;90.76;97820.19;5067281;28;20124;-81
2022/09/14 10:07:36;;;;;;;12.60;5.95;;;;;;;14.08;89.77;97826.31;5063545;28;20028;-81
2022/09/14 10:10:12;;;;;;;7.82;5.60;;;;;;;14.32;89.16;97826.19;5071685;28;20033;-81
2022/09/14 10:12:45;;;;;;;10.25;4.38;;;;;;;14.42;90.19;97817.91;5074290;28;20021;-81
2022/09/14 10:15:30;;;;;;;10.32;5.40;;;;;;;14.62;87.59;97817.53;5073295;28;20060;-81
2022/09/14 10:18:08;;;;;;;18.30;6.55;;;;;;;14.53;88.63;97818.50;5072933;28;20123;-81
2022/09/14 10:20:36;;;;;;;6.88;4.57;;;;;;;15.26;84.28;97783.38;5074467;28;20104;-82
2022/09/14 10:23:16;;;;;;;8.55;6.53;;;;;;;14.12;90.57;97805.84;5072381;28;20442;-81
2022/09/14 10:25:42;;;;;;;15.35;6.72;;;;;;;14.10;90.68;97815.28;5066135;28;20074;-81
2022/09/14 10:28:21;;;;;;;10.07;6.85;;;;;;;13.75;92.50;97815.91;5061257;28;20442;-81
2022/09/14 10:31:13;;;;;;;12.77;6.32;;;;;;;13.82;92.75;97809.06;5054381;28;20021;-81
2022/09/14 10:33:40;;;;;;;15.10;6.78;;;;;;;13.83;92.53;97821.38;5046145;28;20118;-80
2022/09/14 10:36:20;;;;;;;11.18;6.75;;;;;;;13.63;92.15;97802.16;5054293;28;20040;-81
2022/09/14 10:38:59;;;;;;;12.95;6.50;;;;;;;13.06;94.22;97811.34;5067290;28;20484;-81
2022/09/14 10:41:34;;;;;;;10.40;6.25;;;;;;;13.66;93.78;97823.00;5057687;28;20044;-81
2022/09/14 10:44:11;;;;;;;14.57;7.10;;;;;;;13.70;93.11;97819.47;5072621;28;20020;-81
2022/09/14 10:46:58;;;;;;;11.98;6.07;;;;;;;14.01;91.63;97825.09;5072851;28;20044;-81
2022/09/14 10:49:31;;;;;;;14.27;6.47;;;;;;;13.85;91.06;97826.44;5072534;28;20103;-81
2022/09/14 10:52:18;;;;;;;15.00;7.18;;;;;;;13.48;92.63;97820.06;5071860;28;20392;-81
2022/09/14 10:55:01;;;;;;;12.10;6.55;;;;;;;13.79;92.07;97801.59;5053974;28;20028;-81
2022/09/14 10:58:11;;;;;;;8.63;5.97;;;;;;;14.66;88.18;97798.91;5053675;28;20036;-81
2022/09/14 11:01:11;;;;;;;9.30;4.22;;;;;;;15.35;86.46;97821.88;5049622;28;20056;-81
2022/09/14 11:03:46;;;;;;;10.55;4.40;;;;;;;15.42;84.93;97816.88;5043503;28;20503;-81
2022/09/14 11:06:35;;;;;;;12.63;7.60;;;;;;;14.30;89.78;97814.16;5088488;28;20078;-81
2022/09/14 11:09:17;;;;;;;19.70;8.90;;;;;;;14.04;91.51;97814.56;5065883;28;20086;-81
2022/09/14 11:12:07;;;;;;;12.35;8.88;;;;;;;13.69;92.89;97799.09;5081502;28;20453;-81
2022/09/14 11:14:32;;;;;;;15.43;10.02;;;;;;;14.03;92.10;97813.00;5072033;28;20033;-81
2022/09/14 11:17:01;;;;;;;19.38;9.07;;;;;;;13.76;94.04;97817.50;5071972;28;20028;-81
2022/09/14 11:19:36;;;;;;;19.15;9.20;;;;;;;13.35;95.49;97799.38;5071883;28;20043;-81
2022/09/14 11:22:20;;;;;;;20.73;10.65;;;;;;;14.02;93.24;97810.63;5081072;28;20115;-81
2022/09/14 11:25:03;;;;;;;17.95;10.07;;;;;;;14.40;92.49;97811.25;5069860;28;20029;-81
2022/09/14 11:27:37;;;;;;;15.27;9.40;;;;;;;14.49;89.81;97799.53;5067270;28;20062;-81
2022/09/14 11:30:15;;;;;;;13.77;10.20;;;;;;;14.05;94.28;97791.22;5064040;28;20028;-81
2022/09/14 11:32:46;;;;;;;17.17;10.57;;;;;;;13.95;93.86;97792.22;5064123;28;20077;-81
2022/09/14 11:35:14;;;;;;;13.27;9.70;;;;;;;14.05;93.92;97789.34;5066494;28;20062;-81
2022/09/14 11:37:51;;;;;;;14.50;7.38;;;;;;;15.03;89.05;97791.41;5070090;28;20456;-81
2022/09/14 11:40:19;;;;;;;16.08;9.77;;;;;;;14.31;91.78;97780.84;5070862;28;20100;-81
2022/09/14 11:42:56;;;;;;;12.98;8.50;;;;;;;14.40;92.46;97777.16;5071629;28;20031;-81
2022/09/14 11:45:30;;;;;;;16.67;9.75;;;;;;;15.21;88.49;97788.84;5067336;28;20032;-81
2022/09/14 11:48:07;;;;;;;15.52;10.25;;;;;;;14.78;89.87;97783.91;5070607;28;20063;-81
2022/09/14 11:50:34;;;;;;;17.77;11.02;;;;;;;14.38;92.15;97781.22;5071482;28;20499;-81